createdAt,value
2023-10-01T00:02:10.046Z,4.00
2023-10-01T00:04:38.918Z,4.00
2023-10-01T00:07:09.623Z,3.90
2023-10-01T00:09:38.814Z,4.10
2023-10-01T00:12:08.279Z,3.83
2023-10-01T00:14:37.709Z,3.97
2023-10-01T00:17:07.172Z,3.47
2023-10-01T00:19:36.438Z,3.50
2023-10-01T00:22:04.867Z,3.63
2023-10-01T00:24:35.599Z,3.53
2023-10-01T00:27:09.878Z,3.63
2023-10-01T00:29:38.921Z,3.77
2023-10-01T00:32:07.187Z,4.00
2023-10-01T00:34:35.819Z,3.47
2023-10-01T00:37:04.398Z,3.57
2023-10-01T00:39:35.638Z,3.70
2023-10-01T00:42:04.030Z,3.00
2023-10-01T00:44:32.379Z,3.50
2023-10-01T00:47:01.211Z,3.50
2023-10-01T00:49:30.125Z,3.80
2023-10-01T00:51:58.629Z,3.60
2023-10-01T00:54:29.712Z,3.80
2023-10-01T00:57:00.060Z,3.40
2023-10-01T00:59:29.399Z,3.37
2023-10-01T01:01:58.676Z,3.80
2023-10-01T01:04:30.764Z,3.57
2023-10-01T01:07:06.837Z,3.50
2023-10-01T01:09:38.461Z,3.50
2023-10-01T01:12:09.117Z,3.70
2023-10-01T01:14:37.941Z,3.63
2023-10-01T01:17:06.784Z,3.53
2023-10-01T01:19:35.805Z,3.67
2023-10-01T01:22:04.413Z,3.20
2023-10-01T01:24:34.983Z,3.57
2023-10-01T01:27:07.598Z,3.20
2023-10-01T01:29:42.379Z,2.97
2023-10-01T01:32:15.324Z,3.27
2023-10-01T01:34:45.590Z,3.47
2023-10-01T01:37:31.998Z,3.67
2023-10-01T01:40:10.666Z,3.33
2023-10-01T01:42:39.955Z,3.70
2023-10-01T01:45:26.327Z,3.77
2023-10-01T01:47:55.305Z,3.57
2023-10-01T01:50:28.243Z,3.70
2023-10-01T01:52:59.142Z,3.87
2023-10-01T01:55:29.711Z,3.30
2023-10-01T01:58:09.925Z,3.57
2023-10-01T02:00:40.206Z,3.50
2023-10-01T02:03:16.532Z,3.90
2023-10-01T02:05:48.874Z,3.70
2023-10-01T02:08:26.370Z,3.50
2023-10-01T02:10:58.056Z,3.87
2023-10-01T02:13:28.652Z,4.07
2023-10-01T02:15:57.078Z,3.87
2023-10-01T02:18:27.995Z,4.10
2023-10-01T02:20:58.159Z,3.70
2023-10-01T02:23:27.668Z,3.90
2023-10-01T02:26:01.714Z,4.40
2023-10-01T02:28:34.240Z,3.80
2023-10-01T02:31:06.636Z,3.80
2023-10-01T02:33:56.108Z,4.03
2023-10-01T02:36:25.280Z,4.03
2023-10-01T02:38:55.079Z,4.40
2023-10-01T02:41:26.792Z,4.13
2023-10-01T02:43:57.297Z,4.30
2023-10-01T02:46:28.507Z,4.20
2023-10-01T02:49:01.347Z,4.03
2023-10-01T02:51:34.105Z,4.30
2023-10-01T02:54:07.462Z,4.30
2023-10-01T02:56:39.238Z,4.37
2023-10-01T02:59:13.121Z,4.03
2023-10-01T03:01:44.456Z,4.27
2023-10-01T03:04:17.030Z,3.80
2023-10-01T03:06:48.992Z,4.17
2023-10-01T03:09:31.687Z,4.43
2023-10-01T03:12:17.055Z,4.17
2023-10-01T03:15:01.533Z,4.40
2023-10-01T03:17:34.835Z,4.20
2023-10-01T03:20:17.388Z,4.47
2023-10-01T03:22:54.130Z,5.03
2023-10-01T03:25:30.415Z,4.50
2023-10-01T03:28:00.819Z,4.60
2023-10-01T03:30:33.740Z,4.80
2023-10-01T03:33:02.830Z,4.73
2023-10-01T03:35:31.953Z,4.93
2023-10-01T03:38:11.899Z,4.80
2023-10-01T03:41:02.238Z,4.70
2023-10-01T03:43:36.843Z,4.70
2023-10-01T03:46:15.524Z,4.67
2023-10-01T03:49:00.302Z,5.10
2023-10-01T03:51:47.985Z,4.37
2023-10-01T03:54:16.951Z,5.03
2023-10-01T03:56:57.221Z,4.47
2023-10-01T03:59:29.052Z,4.67
2023-10-01T04:02:01.436Z,5.20
2023-10-01T04:04:32.954Z,5.03
2023-10-01T04:07:11.606Z,5.13
2023-10-01T04:09:47.945Z,5.10
2023-10-01T04:12:30.096Z,5.10
2023-10-01T04:15:03.193Z,4.90
2023-10-01T04:17:37.335Z,5.20
2023-10-01T04:20:15.481Z,5.20
2023-10-01T04:22:43.207Z,5.00
2023-10-01T04:25:16.650Z,5.43
2023-10-01T04:27:47.277Z,5.53
2023-10-01T04:30:17.338Z,5.50
2023-10-01T04:32:47.907Z,5.00
2023-10-01T04:35:21.362Z,5.50
2023-10-01T04:37:52.809Z,5.83
2023-10-01T04:40:41.943Z,5.50
2023-10-01T04:43:13.069Z,5.70
2023-10-01T04:45:45.690Z,5.73
2023-10-01T04:48:23.823Z,4.97
2023-10-01T04:50:54.820Z,5.47
2023-10-01T04:53:24.557Z,5.73
2023-10-01T04:56:10.503Z,5.50
2023-10-01T04:58:39.685Z,5.43
2023-10-01T05:01:12.854Z,5.70
2023-10-01T05:03:42.501Z,5.10
2023-10-01T05:06:13.133Z,5.50
2023-10-01T05:08:42.190Z,5.63
2023-10-01T05:11:13.146Z,5.57
2023-10-01T05:13:42.453Z,5.53
2023-10-01T05:16:15.075Z,5.07
2023-10-01T05:18:46.733Z,5.60
2023-10-01T05:21:15.429Z,5.90
2023-10-01T05:23:47.179Z,5.60
2023-10-01T05:26:22.702Z,5.80
2023-10-01T05:28:53.183Z,6.03
2023-10-01T05:31:26.120Z,5.80
2023-10-01T05:33:55.322Z,5.47
2023-10-01T05:36:24.540Z,5.77
2023-10-01T05:38:55.574Z,5.97
2023-10-01T05:41:31.229Z,6.20
2023-10-01T05:44:02.881Z,5.60
2023-10-01T05:46:33.458Z,5.60
2023-10-01T05:49:03.417Z,5.97
2023-10-01T05:51:44.845Z,6.13
2023-10-01T05:54:20.005Z,5.57
2023-10-01T05:56:50.331Z,6.10
2023-10-01T05:59:22.193Z,5.90
2023-10-01T06:01:52.522Z,6.20
2023-10-01T06:04:21.496Z,6.20
2023-10-01T06:06:51.621Z,5.87
2023-10-01T06:09:20.185Z,6.10
2023-10-01T06:12:01.324Z,6.03
2023-10-01T06:14:40.843Z,5.93
2023-10-01T06:17:12.554Z,6.20
2023-10-01T06:19:42.632Z,6.47
2023-10-01T06:22:24.512Z,6.43
2023-10-01T06:24:54.123Z,5.97
2023-10-01T06:27:32.367Z,6.20
2023-10-01T06:30:02.288Z,6.17
2023-10-01T06:32:35.540Z,5.67
2023-10-01T06:35:04.713Z,5.80
2023-10-01T06:37:47.266Z,6.10
2023-10-01T06:40:29.664Z,6.37
2023-10-01T06:43:00.092Z,6.07
2023-10-01T06:45:41.385Z,5.80
2023-10-01T06:48:16.034Z,6.40
2023-10-01T06:50:45.815Z,6.17
2023-10-01T06:53:15.201Z,6.00
2023-10-01T06:55:46.935Z,6.53
2023-10-01T06:58:16.007Z,6.20
2023-10-01T07:00:44.851Z,6.43
2023-10-01T07:03:21.796Z,6.03
2023-10-01T07:05:53.237Z,6.50
2023-10-01T07:08:39.203Z,5.87
2023-10-01T07:11:13.292Z,5.90
2023-10-01T07:13:42.110Z,5.73
2023-10-01T07:16:11.119Z,6.07
2023-10-01T07:18:44.279Z,6.43
2023-10-01T07:21:13.548Z,6.50
2023-10-01T07:23:44.508Z,6.30
2023-10-01T07:26:14.712Z,6.37
2023-10-01T07:28:43.689Z,6.50
2023-10-01T07:31:14.982Z,6.50
2023-10-01T07:33:44.790Z,6.43
2023-10-01T07:36:16.271Z,6.73
2023-10-01T07:38:50.748Z,6.57
2023-10-01T07:41:21.969Z,6.90
2023-10-01T07:43:51.084Z,6.57
2023-10-01T07:46:21.378Z,7.03
2023-10-01T07:48:53.647Z,6.90
2023-10-01T07:51:29.544Z,6.77
2023-10-01T07:54:01.573Z,7.03
2023-10-01T07:56:30.168Z,6.43
2023-10-01T07:59:15.110Z,6.60
2023-10-01T08:01:49.731Z,6.30
2023-10-01T08:04:36.438Z,7.03
2023-10-01T08:07:17.443Z,6.77
2023-10-01T08:09:48.577Z,7.07
2023-10-01T08:12:16.962Z,6.80
2023-10-01T08:15:04.216Z,6.73
2023-10-01T08:17:34.301Z,6.93
2023-10-01T08:20:17.576Z,7.00
2023-10-01T08:23:06.535Z,7.20
2023-10-01T08:25:34.173Z,6.87
2023-10-01T08:28:26.182Z,6.77
2023-10-01T08:31:22.644Z,6.67
2023-10-01T08:33:53.005Z,7.00
2023-10-01T08:36:27.640Z,6.93
2023-10-01T08:39:28.258Z,7.07
2023-10-01T08:41:59.721Z,7.20
2023-10-01T08:44:35.266Z,6.90
2023-10-01T08:47:23.812Z,6.77
2023-10-01T08:49:53.191Z,6.73
2023-10-01T08:52:28.770Z,6.53
2023-10-01T08:54:58.211Z,6.80
2023-10-01T08:57:40.058Z,6.90
2023-10-01T09:00:19.453Z,7.00
2023-10-01T09:02:57.186Z,7.20
2023-10-01T09:05:26.740Z,6.53
2023-10-01T09:08:11.970Z,7.10
2023-10-01T09:10:52.730Z,6.83
2023-10-01T09:13:23.981Z,7.10
2023-10-01T09:15:57.427Z,6.50
2023-10-01T09:18:28.190Z,6.33
2023-10-01T09:21:10.148Z,6.63
2023-10-01T09:24:14.044Z,7.03
2023-10-01T09:26:44.385Z,7.30
2023-10-01T09:29:23.037Z,6.60
2023-10-01T09:31:58.492Z,6.80
2023-10-01T09:34:35.504Z,6.73
2023-10-01T09:37:05.822Z,6.80
2023-10-01T09:39:42.727Z,6.73
2023-10-01T09:42:26.645Z,6.70
2023-10-01T09:44:56.561Z,6.80
2023-10-01T09:47:29.017Z,5.87
2023-10-01T09:49:59.014Z,6.73
2023-10-01T09:52:33.068Z,6.23
2023-10-01T09:55:09.853Z,6.37
2023-10-01T09:57:40.235Z,6.33
2023-10-01T10:00:20.075Z,6.27
2023-10-01T10:02:55.956Z,6.27
2023-10-01T10:05:30.120Z,7.13
2023-10-01T10:08:15.567Z,6.60
2023-10-01T10:11:00.506Z,7.17
2023-10-01T10:13:40.631Z,6.20
2023-10-01T10:16:23.775Z,6.77
2023-10-01T10:19:14.717Z,6.13
2023-10-01T10:22:18.541Z,6.47
2023-10-01T10:24:56.497Z,6.43
2023-10-01T10:27:50.728Z,6.67
2023-10-01T10:30:23.357Z,7.10
2023-10-01T10:33:32.006Z,6.23
2023-10-01T10:37:00.381Z,6.37
2023-10-01T10:40:19.974Z,6.60
2023-10-01T10:43:18.789Z,6.53
2023-10-01T10:46:02.537Z,6.50
2023-10-01T10:49:09.608Z,6.70
2023-10-01T10:51:49.544Z,6.03
2023-10-01T10:54:30.368Z,6.23
2023-10-01T10:57:01.101Z,6.50
2023-10-01T10:59:37.166Z,6.03
2023-10-01T11:02:07.129Z,5.93
2023-10-01T11:04:43.363Z,6.47
2023-10-01T11:07:14.548Z,6.50
2023-10-01T11:09:43.517Z,6.63
2023-10-01T11:12:22.988Z,6.50
2023-10-01T11:15:21.670Z,6.50
2023-10-01T11:17:50.809Z,6.80
2023-10-01T11:20:25.558Z,6.67
2023-10-01T11:22:56.811Z,6.60
2023-10-01T11:25:26.346Z,6.85
2023-10-01T11:28:06.906Z,6.90
2023-10-01T11:30:44.544Z,6.67
2023-10-01T11:33:31.065Z,6.80
2023-10-01T11:36:09.637Z,6.60
2023-10-01T11:38:41.500Z,6.45
2023-10-01T11:41:11.620Z,6.77
2023-10-01T11:43:42.171Z,6.45
2023-10-01T11:46:36.676Z,6.45
2023-10-01T11:49:18.364Z,6.75
2023-10-01T11:51:49.819Z,6.65
2023-10-01T11:54:19.885Z,6.47
2023-10-01T11:57:06.176Z,6.90
2023-10-01T11:59:37.949Z,6.18
2023-10-01T12:02:23.012Z,6.43
2023-10-01T12:04:58.966Z,6.35
2023-10-01T12:07:34.430Z,6.53
2023-10-01T12:10:06.598Z,6.25
2023-10-01T12:12:38.651Z,6.45
2023-10-01T12:15:21.979Z,7.20
2023-10-01T12:17:52.607Z,6.72
2023-10-01T12:20:24.828Z,6.90
2023-10-01T12:23:12.768Z,6.90
2023-10-01T12:25:47.765Z,7.00
2023-10-01T12:28:21.594Z,7.35
2023-10-01T12:30:59.290Z,7.40
2023-10-01T12:33:40.356Z,6.85
2023-10-01T12:36:13.084Z,7.18
2023-10-01T12:38:41.157Z,6.50
2023-10-01T12:41:10.070Z,6.93
2023-10-01T12:43:43.690Z,6.90
2023-10-01T12:46:14.922Z,6.88
2023-10-01T12:49:03.378Z,7.20
2023-10-01T12:51:38.878Z,6.82
2023-10-01T12:54:08.593Z,7.25
2023-10-01T12:56:50.050Z,7.28
2023-10-01T12:59:23.058Z,7.28
2023-10-01T13:01:54.016Z,7.40
2023-10-01T13:04:24.489Z,7.15
2023-10-01T13:06:53.582Z,7.28
2023-10-01T13:09:55.432Z,6.45
2023-10-01T13:12:26.763Z,6.65
2023-10-01T13:15:13.478Z,6.70
2023-10-01T13:17:46.136Z,6.95
2023-10-01T13:20:30.087Z,7.65
2023-10-01T13:23:08.475Z,6.90
2023-10-01T13:25:38.576Z,7.10
2023-10-01T13:28:07.449Z,7.20
2023-10-01T13:30:51.464Z,6.95
2023-10-01T13:33:21.114Z,7.53
2023-10-01T13:35:58.283Z,7.03
2023-10-01T13:38:54.031Z,7.55
2023-10-01T13:41:40.275Z,7.32
2023-10-01T13:44:35.434Z,7.20
2023-10-01T13:47:23.125Z,7.30
2023-10-01T13:50:08.790Z,7.70
2023-10-01T13:52:56.143Z,7.03
2023-10-01T13:55:42.061Z,7.10
2023-10-01T13:58:28.035Z,7.20
2023-10-01T14:01:22.345Z,7.45
2023-10-01T14:04:08.335Z,7.65
2023-10-01T14:06:56.781Z,7.50
2023-10-01T14:09:46.910Z,7.53
2023-10-01T14:12:16.131Z,7.38
2023-10-01T14:14:45.957Z,7.30
2023-10-01T14:17:17.487Z,7.32
2023-10-01T14:19:54.072Z,7.93
2023-10-01T14:22:22.909Z,7.70
2023-10-01T14:24:55.183Z,7.28
2023-10-01T14:27:31.055Z,7.00
2023-10-01T14:30:25.459Z,6.93
2023-10-01T14:32:55.892Z,7.70
2023-10-01T14:35:27.092Z,7.88
2023-10-01T14:38:05.744Z,7.65
2023-10-01T14:40:36.101Z,7.53
2023-10-01T14:43:05.011Z,7.47
2023-10-01T14:45:44.146Z,7.70
2023-10-01T14:48:13.107Z,7.75
2023-10-01T14:50:49.403Z,7.50
2023-10-01T14:53:19.868Z,7.45
2023-10-01T14:55:50.361Z,7.57
2023-10-01T14:58:19.830Z,7.60
2023-10-01T15:00:54.162Z,8.13
2023-10-01T15:03:24.492Z,7.60
2023-10-01T15:05:53.250Z,7.22
2023-10-01T15:08:22.684Z,7.82
2023-10-01T15:10:53.165Z,7.88
2023-10-01T15:13:35.632Z,7.35
2023-10-01T15:16:16.495Z,8.65
2023-10-01T15:19:04.145Z,7.85
2023-10-01T15:21:33.246Z,7.57
2023-10-01T15:24:02.584Z,8.30
2023-10-01T15:26:33.347Z,8.50
2023-10-01T15:29:06.796Z,8.05
2023-10-01T15:31:36.125Z,7.65
2023-10-01T15:34:06.342Z,8.00
2023-10-01T15:36:50.255Z,7.70
2023-10-01T15:39:38.029Z,8.32
2023-10-01T15:42:13.259Z,8.17
2023-10-01T15:44:48.041Z,8.10
2023-10-01T15:47:33.980Z,8.10
2023-10-01T15:50:08.439Z,8.27
2023-10-01T15:52:47.775Z,7.53
2023-10-01T15:55:18.584Z,7.43
2023-10-01T15:57:56.025Z,7.30
2023-10-01T16:00:28.667Z,7.80
2023-10-01T16:03:08.390Z,8.10
2023-10-01T16:05:42.531Z,7.60
2023-10-01T16:08:20.173Z,7.43
2023-10-01T16:10:50.807Z,7.53
2023-10-01T16:13:29.329Z,7.17
2023-10-01T16:16:02.293Z,7.40
2023-10-01T16:18:32.079Z,7.97
2023-10-01T16:21:04.041Z,7.10
2023-10-01T16:23:32.992Z,8.10
2023-10-01T16:26:01.887Z,7.37
2023-10-01T16:28:35.204Z,7.53
2023-10-01T16:31:05.357Z,7.50
2023-10-01T16:33:42.270Z,7.60
2023-10-01T16:36:11.611Z,7.53
2023-10-01T16:38:41.259Z,6.97
2023-10-01T16:41:13.992Z,7.70
2023-10-01T16:43:54.154Z,8.00
2023-10-01T16:46:23.999Z,7.20
2023-10-01T16:48:59.959Z,7.50
2023-10-01T16:51:29.701Z,7.50
2023-10-01T16:53:59.675Z,7.13
2023-10-01T16:56:30.452Z,7.57
2023-10-01T16:59:06.108Z,7.73
2023-10-01T17:01:39.705Z,7.87
2023-10-01T17:04:10.282Z,7.27
2023-10-01T17:06:41.059Z,7.63
2023-10-01T17:09:12.864Z,7.80
2023-10-01T17:11:42.570Z,7.40
2023-10-01T17:14:16.620Z,7.60
2023-10-01T17:16:46.370Z,7.53
2023-10-01T17:19:15.752Z,7.67
2023-10-01T17:21:46.903Z,7.23
2023-10-01T17:24:23.436Z,7.40
2023-10-01T17:26:52.569Z,7.77
2023-10-01T17:29:24.742Z,7.20
2023-10-01T17:31:56.643Z,7.10
2023-10-01T17:34:27.040Z,7.97
2023-10-01T17:37:01.619Z,7.50
2023-10-01T17:39:30.723Z,7.57
2023-10-01T17:42:03.082Z,8.43
2023-10-01T17:44:37.426Z,7.63
2023-10-01T17:47:07.825Z,7.90
2023-10-01T17:49:46.755Z,7.70
2023-10-01T17:52:23.649Z,8.00
2023-10-01T17:54:52.861Z,7.93
2023-10-01T17:57:27.969Z,7.33
2023-10-01T18:00:00.781Z,7.40
2023-10-01T18:02:30.535Z,7.43
2023-10-01T18:05:08.982Z,7.73
2023-10-01T18:07:39.342Z,7.27
2023-10-01T18:10:26.834Z,7.30
2023-10-01T18:12:55.833Z,7.17
2023-10-01T18:15:28.451Z,7.27
2023-10-01T18:17:57.380Z,7.00
2023-10-01T18:20:25.840Z,7.70
2023-10-01T18:22:59.822Z,7.43
2023-10-01T18:25:28.680Z,7.80
2023-10-01T18:27:58.172Z,7.83
2023-10-01T18:30:28.602Z,7.37
2023-10-01T18:32:57.008Z,7.33
2023-10-01T18:35:26.858Z,7.77
2023-10-01T18:37:57.840Z,7.33
2023-10-01T18:40:26.523Z,7.43
2023-10-01T18:42:56.369Z,7.90
2023-10-01T18:45:26.604Z,7.40
2023-10-01T18:47:57.676Z,6.53
2023-10-01T18:50:26.915Z,7.23
2023-10-01T18:52:56.062Z,7.43
2023-10-01T18:55:26.722Z,7.80
2023-10-01T18:57:55.492Z,7.23
2023-10-01T19:00:25.085Z,8.37
2023-10-01T19:02:57.035Z,7.60
2023-10-01T19:05:28.327Z,7.37
2023-10-01T19:07:59.777Z,7.97
2023-10-01T19:10:32.415Z,7.87
2023-10-01T19:13:01.936Z,7.53
2023-10-01T19:15:30.302Z,7.67
2023-10-01T19:18:00.565Z,7.97
2023-10-01T19:20:34.912Z,7.20
2023-10-01T19:23:03.965Z,7.67
2023-10-01T19:25:33.863Z,7.30
2023-10-01T19:28:09.543Z,7.80
2023-10-01T19:30:38.475Z,7.70
2023-10-01T19:33:07.685Z,7.40
2023-10-01T19:35:38.799Z,7.33
2023-10-01T19:38:09.431Z,7.63
2023-10-01T19:40:38.314Z,7.57
2023-10-01T19:43:07.283Z,7.77
2023-10-01T19:45:37.636Z,7.40
2023-10-01T19:48:07.391Z,8.00
2023-10-01T19:50:41.915Z,7.83
2023-10-01T19:53:18.333Z,7.80
2023-10-01T19:55:55.678Z,8.17
2023-10-01T19:58:25.999Z,8.50
2023-10-01T20:00:54.995Z,8.40
2023-10-01T20:03:25.636Z,7.53
2023-10-01T20:05:55.812Z,8.50
2023-10-01T20:08:29.235Z,7.97
2023-10-01T20:10:58.718Z,8.33
2023-10-01T20:13:32.171Z,8.97
2023-10-01T20:16:03.864Z,7.73
2023-10-01T20:18:32.877Z,8.13
2023-10-01T20:21:07.674Z,8.97
2023-10-01T20:23:38.457Z,8.27
2023-10-01T20:26:07.841Z,8.50
2023-10-01T20:28:38.185Z,8.23
2023-10-01T20:31:06.847Z,8.40
2023-10-01T20:33:36.033Z,8.67
2023-10-01T20:36:06.579Z,8.10
2023-10-01T20:38:35.195Z,7.90
2023-10-01T20:41:16.113Z,7.43
2023-10-01T20:43:45.573Z,8.00
2023-10-01T20:46:17.817Z,8.33
2023-10-01T20:48:47.839Z,8.50
2023-10-01T20:51:33.498Z,8.53
2023-10-01T20:54:05.327Z,8.40
2023-10-01T20:56:37.266Z,9.00
2023-10-01T20:59:14.709Z,8.57
2023-10-01T21:01:50.350Z,8.50
2023-10-01T21:04:26.702Z,8.33
2023-10-01T21:07:03.307Z,8.37
2023-10-01T21:09:39.051Z,8.83
2023-10-01T21:12:13.547Z,7.67
2023-10-01T21:14:48.088Z,8.80
2023-10-01T21:17:23.493Z,7.97
2023-10-01T21:19:54.950Z,8.37
2023-10-01T21:22:30.739Z,8.40
2023-10-01T21:25:01.945Z,8.27
2023-10-01T21:27:30.289Z,8.20
2023-10-01T21:29:59.108Z,8.40
2023-10-01T21:32:28.727Z,8.40
2023-10-01T21:34:59.256Z,8.53
2023-10-01T21:37:32.315Z,7.90
2023-10-01T21:40:01.181Z,9.07
2023-10-01T21:42:33.572Z,8.20
2023-10-01T21:45:21.116Z,8.23
2023-10-01T21:47:50.720Z,8.53
2023-10-01T21:50:19.122Z,8.03
2023-10-01T21:52:49.496Z,8.27
2023-10-01T21:55:20.587Z,8.40
2023-10-01T21:57:49.041Z,8.60
2023-10-01T22:00:34.694Z,8.47
2023-10-01T22:03:08.833Z,8.43
2023-10-01T22:05:38.842Z,8.37
2023-10-01T22:08:10.735Z,7.90
2023-10-01T22:10:39.893Z,8.70
2023-10-01T22:13:12.363Z,8.80
2023-10-01T22:15:42.325Z,7.97
2023-10-01T22:18:24.054Z,7.90
2023-10-01T22:20:53.085Z,8.30
2023-10-01T22:23:30.539Z,8.07
2023-10-01T22:26:01.544Z,8.20
2023-10-01T22:28:35.277Z,8.20
2023-10-01T22:31:07.043Z,8.57
2023-10-01T22:33:38.400Z,8.20
2023-10-01T22:36:10.722Z,8.17
2023-10-01T22:38:41.412Z,8.30
2023-10-01T22:41:13.692Z,8.10
2023-10-01T22:44:01.553Z,8.60
2023-10-01T22:46:31.657Z,8.73
2023-10-01T22:49:02.028Z,8.87
2023-10-01T22:51:32.012Z,8.73
2023-10-01T22:54:06.400Z,8.47
2023-10-01T22:56:36.191Z,8.37
2023-10-01T22:59:08.292Z,8.20
2023-10-01T23:01:38.984Z,9.10
2023-10-01T23:04:12.280Z,8.10
2023-10-01T23:06:44.337Z,8.40
2023-10-01T23:09:20.477Z,8.60
2023-10-01T23:11:50.520Z,8.67
2023-10-01T23:14:22.285Z,8.50
2023-10-01T23:16:53.623Z,8.33
2023-10-01T23:19:35.495Z,8.23
2023-10-01T23:22:19.029Z,8.63
2023-10-01T23:24:53.198Z,8.97
2023-10-01T23:27:24.779Z,8.20
2023-10-01T23:29:54.397Z,8.40
2023-10-01T23:32:28.393Z,8.20
2023-10-01T23:34:58.030Z,8.87
2023-10-01T23:37:53.794Z,8.13
2023-10-01T23:40:26.040Z,8.10
2023-10-01T23:42:55.149Z,8.47
2023-10-01T23:45:25.802Z,8.67
2023-10-01T23:48:02.074Z,8.57
2023-10-01T23:50:30.534Z,8.60
2023-10-01T23:53:07.334Z,8.07
2023-10-01T23:55:38.120Z,8.43
2023-10-01T23:58:22.775Z,7.90
